createdAt,value
2018-05-16T00:00:23.225Z,0.00
2018-05-16T00:01:23.244Z,0.00
2018-05-16T00:02:23.262Z,0.00
2018-05-16T00:03:23.277Z,0.00
2018-05-16T00:04:23.296Z,0.00
2018-05-16T00:05:23.353Z,0.00
2018-05-16T00:06:23.334Z,0.00
2018-05-16T00:07:23.406Z,0.00
2018-05-16T00:08:23.373Z,0.00
2018-05-16T00:09:23.390Z,0.00
2018-05-16T00:10:23.409Z,0.00
2018-05-16T00:11:23.477Z,0.00
2018-05-16T00:12:23.447Z,0.00
2018-05-16T00:13:23.517Z,0.00
2018-05-16T00:14:23.502Z,0.00
2018-05-16T00:15:23.503Z,0.00
2018-05-16T00:16:23.520Z,0.00
2018-05-16T00:17:23.536Z,0.00
2018-05-16T00:18:23.559Z,0.00
2018-05-16T00:19:23.625Z,0.00
2018-05-16T00:20:23.596Z,0.00
2018-05-16T00:21:23.614Z,0.00
2018-05-16T00:22:23.631Z,0.00
2018-05-16T00:23:23.709Z,0.00
2018-05-16T00:24:23.670Z,0.00
2018-05-16T00:25:23.741Z,0.00
2018-05-16T00:26:23.703Z,0.00
2018-05-16T00:27:23.726Z,0.00
2018-05-16T00:28:23.742Z,0.00
2018-05-16T00:29:23.792Z,0.00
2018-05-16T00:30:23.786Z,0.00
2018-05-16T00:31:23.849Z,0.00
2018-05-16T00:32:23.816Z,0.00
2018-05-16T00:33:23.831Z,0.00
2018-05-16T00:34:23.852Z,0.00
2018-05-16T00:35:23.928Z,0.00
2018-05-16T00:36:23.887Z,0.00
2018-05-16T00:37:23.955Z,0.00
2018-05-16T00:38:23.922Z,0.00
2018-05-16T00:39:23.945Z,0.00
2018-05-16T00:40:23.964Z,0.00
2018-05-16T00:41:24.048Z,0.00
2018-05-16T00:42:23.998Z,0.00
2018-05-16T00:43:24.073Z,0.00
2018-05-16T00:44:24.037Z,0.00
2018-05-16T00:45:24.057Z,0.00
2018-05-16T00:46:24.070Z,0.00
2018-05-16T00:47:24.094Z,0.00
2018-05-16T00:48:24.107Z,0.00
2018-05-16T00:49:24.126Z,0.00
2018-05-16T00:50:24.145Z,0.00
2018-05-16T00:51:24.168Z,0.00
2018-05-16T00:52:24.184Z,0.00
2018-05-16T00:53:24.200Z,0.00
2018-05-16T00:54:24.222Z,0.00
2018-05-16T00:55:24.287Z,0.00
2018-05-16T00:56:24.259Z,0.00
2018-05-16T00:57:24.274Z,0.00
2018-05-16T00:58:24.297Z,0.00
2018-05-16T00:59:24.312Z,0.00
2018-05-16T01:00:24.330Z,0.00
2018-05-16T01:01:24.347Z,0.00
2018-05-16T01:02:24.366Z,0.00
2018-05-16T01:03:24.387Z,0.00
2018-05-16T01:04:24.400Z,0.00
2018-05-16T01:05:24.425Z,0.00
2018-05-16T01:06:24.439Z,0.00
2018-05-16T01:07:24.764Z,0.00
2018-05-16T01:08:24.474Z,0.00
2018-05-16T01:09:24.507Z,0.00
2018-05-16T01:10:24.517Z,0.00
2018-05-16T01:11:24.531Z,0.00
2018-05-16T01:12:24.606Z,0.00
2018-05-16T01:13:24.572Z,0.00
2018-05-16T01:14:24.593Z,0.00
2018-05-16T01:15:24.606Z,0.00
2018-05-16T01:16:24.634Z,0.00
2018-05-16T01:17:24.645Z,0.00
2018-05-16T01:18:24.685Z,0.00
2018-05-16T01:19:24.996Z,0.00
2018-05-16T01:20:24.704Z,0.00
2018-05-16T01:21:24.719Z,0.00
2018-05-16T01:22:24.754Z,0.00
2018-05-16T01:23:24.759Z,0.00
2018-05-16T01:24:24.781Z,0.00
2018-05-16T01:25:24.796Z,0.00
2018-05-16T01:26:24.824Z,0.00
2018-05-16T01:27:24.828Z,0.00
2018-05-16T01:28:24.847Z,0.00
2018-05-16T01:29:24.870Z,0.00
2018-05-16T01:30:24.888Z,0.00
2018-05-16T01:31:24.908Z,0.00
2018-05-16T01:32:24.920Z,0.00
2018-05-16T01:33:24.945Z,0.00
2018-05-16T01:34:24.959Z,0.00
2018-05-16T01:35:24.976Z,0.00
2018-05-16T01:36:24.993Z,0.00
2018-05-16T01:37:25.063Z,0.00
2018-05-16T01:38:25.036Z,0.00
2018-05-16T01:39:25.051Z,0.00
2018-05-16T01:40:25.076Z,0.00
2018-05-16T01:41:25.090Z,0.00
2018-05-16T01:42:25.110Z,0.00
2018-05-16T01:43:25.143Z,0.00
2018-05-16T01:44:25.142Z,0.00
2018-05-16T01:45:25.160Z,0.00
2018-05-16T01:46:25.186Z,0.00
2018-05-16T01:47:25.202Z,0.00
2018-05-16T01:48:25.219Z,0.00
2018-05-16T01:49:25.297Z,0.00
2018-05-16T01:50:25.255Z,0.00
2018-05-16T01:51:25.276Z,0.00
2018-05-16T01:52:25.296Z,0.00
2018-05-16T01:53:25.309Z,0.00
2018-05-16T01:54:25.329Z,0.00
2018-05-16T01:55:25.404Z,0.00
2018-05-16T01:56:25.364Z,0.00
2018-05-16T01:57:25.384Z,0.00
2018-05-16T01:58:25.408Z,0.00
2018-05-16T01:59:25.424Z,0.00
2018-05-16T02:00:25.445Z,0.00
2018-05-16T02:01:25.514Z,0.00
2018-05-16T02:02:25.513Z,0.00
2018-05-16T02:03:25.501Z,0.00
2018-05-16T02:04:25.517Z,0.00
2018-05-16T02:05:25.534Z,0.00
2018-05-16T02:06:25.555Z,0.00
2018-05-16T02:07:25.620Z,0.00
2018-05-16T02:08:25.585Z,0.00
2018-05-16T02:09:25.627Z,0.00
2018-05-16T02:10:25.635Z,0.00
2018-05-16T02:11:25.641Z,0.00
2018-05-16T02:12:25.661Z,0.00
2018-05-16T02:13:25.729Z,0.00
2018-05-16T02:14:25.747Z,0.00
2018-05-16T02:15:25.723Z,0.00
2018-05-16T02:16:25.737Z,0.00
2018-05-16T02:17:25.761Z,0.00
2018-05-16T02:18:25.772Z,0.00
2018-05-16T02:19:25.841Z,0.00
2018-05-16T02:20:25.872Z,0.00
2018-05-16T02:21:25.881Z,0.00
2018-05-16T02:22:25.847Z,0.00
2018-05-16T02:23:25.863Z,0.00
2018-05-16T02:24:25.890Z,0.00
2018-05-16T02:25:25.955Z,0.00
2018-05-16T02:26:25.941Z,0.00
2018-05-16T02:27:25.938Z,0.00
2018-05-16T02:28:25.955Z,0.00
2018-05-16T02:29:25.976Z,0.00
2018-05-16T02:30:25.999Z,0.00
2018-05-16T02:31:26.065Z,0.00
2018-05-16T02:32:26.175Z,0.00
2018-05-16T02:33:26.052Z,0.00
2018-05-16T02:34:26.070Z,0.00
2018-05-16T02:35:26.088Z,0.00
2018-05-16T02:36:26.105Z,0.00
2018-05-16T02:37:26.223Z,0.00
2018-05-16T02:38:26.143Z,0.00
2018-05-16T02:39:26.155Z,0.00
2018-05-16T02:40:26.175Z,0.00
2018-05-16T02:41:26.192Z,0.00
2018-05-16T02:42:26.213Z,0.00
2018-05-16T02:43:26.285Z,0.00
2018-05-16T02:44:26.287Z,0.00
2018-05-16T02:45:26.266Z,0.00
2018-05-16T02:46:26.283Z,0.00
2018-05-16T02:47:26.307Z,0.00
2018-05-16T02:48:26.324Z,0.00
2018-05-16T02:49:26.337Z,0.00
2018-05-16T02:50:26.354Z,0.00
2018-05-16T02:51:26.378Z,0.00
2018-05-16T02:52:26.398Z,0.00
2018-05-16T02:53:26.412Z,0.00
2018-05-16T02:54:26.503Z,0.00
2018-05-16T02:55:26.498Z,0.00
2018-05-16T02:56:26.467Z,0.00
2018-05-16T02:57:26.490Z,0.00
2018-05-16T02:58:26.499Z,0.00
2018-05-16T02:59:26.514Z,0.00
2018-05-16T03:00:26.540Z,0.00
2018-05-16T03:01:26.554Z,0.00
2018-05-16T03:02:26.571Z,0.00
2018-05-16T03:03:26.637Z,0.00
2018-05-16T03:04:26.611Z,0.00
2018-05-16T03:05:26.623Z,0.00
2018-05-16T03:06:26.640Z,0.00
2018-05-16T03:07:26.714Z,0.00
2018-05-16T03:08:26.683Z,0.00
2018-05-16T03:09:26.750Z,0.00
2018-05-16T03:10:26.713Z,0.00
2018-05-16T03:11:26.733Z,0.00
2018-05-16T03:12:26.754Z,0.00
2018-05-16T03:13:26.772Z,0.00
2018-05-16T03:14:26.784Z,0.00
2018-05-16T03:15:26.877Z,0.00
2018-05-16T03:16:26.817Z,0.00
2018-05-16T03:17:26.840Z,0.00
2018-05-16T03:18:26.854Z,0.00
2018-05-16T03:19:26.923Z,0.00
2018-05-16T03:20:26.889Z,0.00
2018-05-16T03:21:26.927Z,0.00
2018-05-16T03:22:26.925Z,0.00
2018-05-16T03:23:26.947Z,0.00
2018-05-16T03:24:26.964Z,0.00
2018-05-16T03:25:27.034Z,0.00
2018-05-16T03:26:27.010Z,0.00
2018-05-16T03:27:27.049Z,0.00
2018-05-16T03:28:27.031Z,0.00
2018-05-16T03:29:27.050Z,0.00
2018-05-16T03:30:27.077Z,0.00
2018-05-16T03:31:27.137Z,0.00
2018-05-16T03:32:27.106Z,0.00
2018-05-16T03:33:27.199Z,0.00
2018-05-16T03:34:27.139Z,0.00
2018-05-16T03:35:27.158Z,0.00
2018-05-16T03:36:27.183Z,0.00
2018-05-16T03:37:27.196Z,0.00
2018-05-16T03:38:27.208Z,0.00
2018-05-16T03:39:27.231Z,0.00
2018-05-16T03:40:27.247Z,0.00
2018-05-16T03:41:27.268Z,0.00
2018-05-16T03:42:27.284Z,0.00
2018-05-16T03:43:27.302Z,0.00
2018-05-16T03:44:27.322Z,0.00
2018-05-16T03:45:27.338Z,0.00
2018-05-16T03:46:27.354Z,0.00
2018-05-16T03:47:27.367Z,0.00
2018-05-16T03:48:27.390Z,0.00
2018-05-16T03:49:27.405Z,0.00
2018-05-16T03:50:27.422Z,0.00
2018-05-16T03:51:27.444Z,0.00
2018-05-16T03:52:27.461Z,0.00
2018-05-16T03:53:27.476Z,0.00
2018-05-16T03:54:27.497Z,0.00
2018-05-16T03:55:27.563Z,0.00
2018-05-16T03:56:27.528Z,0.00
2018-05-16T03:57:27.544Z,0.00
2018-05-16T03:58:27.642Z,0.00
2018-05-16T03:59:27.589Z,0.00
2018-05-16T04:00:27.606Z,0.00
2018-05-16T04:01:27.636Z,0.00
2018-05-16T04:02:27.646Z,0.00
2018-05-16T04:03:27.652Z,0.00
2018-05-16T04:04:27.704Z,0.00
2018-05-16T04:05:27.692Z,0.00
2018-05-16T04:06:27.712Z,0.00
2018-05-16T04:07:27.730Z,0.00
2018-05-16T04:08:27.739Z,0.00
2018-05-16T04:09:27.771Z,0.00
2018-05-16T04:10:27.824Z,0.00
2018-05-16T04:11:27.799Z,0.00
2018-05-16T04:12:27.820Z,0.00
2018-05-16T04:13:27.848Z,0.00
2018-05-16T04:14:27.849Z,0.00
2018-05-16T04:15:27.870Z,0.00
2018-05-16T04:16:27.883Z,0.00
2018-05-16T04:17:27.938Z,0.00
2018-05-16T04:18:27.921Z,0.00
2018-05-16T04:19:27.996Z,0.00
2018-05-16T04:20:27.964Z,0.00
2018-05-16T04:21:27.973Z,0.00
2018-05-16T04:22:27.994Z,0.00
2018-05-16T04:23:28.031Z,0.00
2018-05-16T04:24:28.026Z,0.00
2018-05-16T04:25:28.049Z,0.00
2018-05-16T04:26:28.057Z,0.00
2018-05-16T04:27:28.075Z,0.00
2018-05-16T04:28:28.097Z,0.00
2018-05-16T04:29:28.129Z,0.00
2018-05-16T04:30:28.130Z,0.00
2018-05-16T04:31:28.204Z,0.00
2018-05-16T04:32:28.168Z,0.00
2018-05-16T04:33:28.183Z,0.00
2018-05-16T04:34:28.199Z,0.00
2018-05-16T04:35:28.235Z,0.00
2018-05-16T04:36:28.234Z,0.00
2018-05-16T04:37:28.308Z,0.00
2018-05-16T04:38:28.268Z,0.00
2018-05-16T04:39:28.286Z,0.00
2018-05-16T04:40:28.308Z,0.00
2018-05-16T04:41:28.320Z,0.00
2018-05-16T04:42:28.340Z,0.00
2018-05-16T04:43:28.416Z,0.00
2018-05-16T04:44:28.373Z,0.00
2018-05-16T04:45:28.393Z,0.00
2018-05-16T04:46:28.409Z,0.00
2018-05-16T04:47:28.425Z,0.00
2018-05-16T04:48:28.521Z,0.00
2018-05-16T04:49:28.463Z,0.00
2018-05-16T04:50:28.479Z,0.00
2018-05-16T04:51:28.499Z,0.00
2018-05-16T04:52:28.513Z,0.00
2018-05-16T04:53:28.535Z,0.00
2018-05-16T04:54:28.600Z,0.00
2018-05-16T04:55:28.645Z,0.00
2018-05-16T04:56:28.585Z,0.00
2018-05-16T04:57:28.600Z,0.00
2018-05-16T04:58:28.620Z,0.00
2018-05-16T04:59:28.641Z,0.00
2018-05-16T05:00:28.652Z,0.00
2018-05-16T05:01:28.668Z,0.00
2018-05-16T05:02:28.688Z,0.00
2018-05-16T05:03:28.714Z,0.00
2018-05-16T05:04:28.732Z,0.00
2018-05-16T05:05:28.748Z,0.00
2018-05-16T05:06:28.813Z,0.00
2018-05-16T05:07:28.829Z,0.00
2018-05-16T05:08:28.789Z,0.00
2018-05-16T05:09:28.813Z,0.00
2018-05-16T05:10:28.832Z,0.00
2018-05-16T05:11:28.861Z,0.00
2018-05-16T05:12:28.870Z,0.00
2018-05-16T05:13:28.935Z,0.00
2018-05-16T05:14:28.897Z,0.00
2018-05-16T05:15:28.915Z,0.00
2018-05-16T05:16:28.933Z,0.00
2018-05-16T05:17:28.950Z,0.00
2018-05-16T05:18:29.147Z,0.00
2018-05-16T05:19:28.989Z,0.00
2018-05-16T05:20:28.999Z,0.00
2018-05-16T05:21:29.022Z,0.00
2018-05-16T05:22:29.039Z,0.00
2018-05-16T05:23:29.054Z,0.00
2018-05-16T05:24:29.093Z,5.63
2018-05-16T05:25:29.089Z,5.63
2018-05-16T05:26:29.125Z,5.63
2018-05-16T05:27:29.124Z,5.63
2018-05-16T05:28:29.141Z,5.63
2018-05-16T05:29:29.158Z,5.63
2018-05-16T05:30:29.176Z,5.63
2018-05-16T05:31:29.195Z,5.63
2018-05-16T05:32:29.206Z,11.25
2018-05-16T05:33:29.227Z,11.25
2018-05-16T05:34:29.246Z,11.25
2018-05-16T05:35:29.262Z,11.25
2018-05-16T05:36:29.277Z,11.25
2018-05-16T05:37:29.351Z,11.25
2018-05-16T05:38:29.310Z,16.88
2018-05-16T05:39:29.335Z,16.88
2018-05-16T05:40:29.349Z,16.88
2018-05-16T05:41:29.373Z,16.88
2018-05-16T05:42:29.386Z,16.88
2018-05-16T05:43:29.640Z,16.88
2018-05-16T05:44:29.414Z,22.50
2018-05-16T05:45:29.437Z,22.50
2018-05-16T05:46:29.452Z,22.50
2018-05-16T05:47:29.512Z,22.50
2018-05-16T05:48:29.491Z,22.50
2018-05-16T05:49:29.559Z,22.50
2018-05-16T05:50:29.526Z,28.13
2018-05-16T05:51:29.540Z,28.13
2018-05-16T05:52:29.554Z,28.13
2018-05-16T05:53:29.574Z,28.13
2018-05-16T05:54:29.593Z,28.13
2018-05-16T05:55:29.679Z,33.75
2018-05-16T05:56:29.624Z,33.75
2018-05-16T05:57:29.644Z,33.75
2018-05-16T05:58:29.659Z,33.75
2018-05-16T05:59:29.677Z,33.75
2018-05-16T06:00:29.708Z,33.75
2018-05-16T06:01:29.760Z,39.38
2018-05-16T06:02:29.729Z,39.38
2018-05-16T06:03:29.748Z,39.38
2018-05-16T06:04:29.767Z,39.38
2018-05-16T06:05:29.858Z,39.38
2018-05-16T06:06:29.796Z,39.38
2018-05-16T06:07:29.866Z,45.00
2018-05-16T06:08:29.831Z,45.00
2018-05-16T06:09:29.858Z,45.00
2018-05-16T06:10:29.869Z,45.00
2018-05-16T06:11:29.889Z,45.00
2018-05-16T06:12:29.906Z,45.00
2018-05-16T06:13:29.970Z,50.63
2018-05-16T06:14:29.941Z,50.63
2018-05-16T06:15:29.962Z,50.63
2018-05-16T06:16:29.972Z,50.63
2018-05-16T06:17:29.990Z,50.63
2018-05-16T06:18:30.010Z,56.25
2018-05-16T06:19:30.117Z,56.25
2018-05-16T06:20:30.049Z,56.25
2018-05-16T06:21:30.064Z,56.25
2018-05-16T06:22:30.089Z,56.25
2018-05-16T06:23:30.095Z,61.88
2018-05-16T06:24:30.116Z,61.88
2018-05-16T06:25:30.183Z,61.88
2018-05-16T06:26:30.196Z,67.50
2018-05-16T06:27:30.211Z,67.50
2018-05-16T06:28:30.187Z,73.13
2018-05-16T06:29:30.202Z,78.75
2018-05-16T06:30:30.220Z,78.75
2018-05-16T06:31:30.288Z,78.75
2018-05-16T06:32:30.317Z,84.38
2018-05-16T06:33:30.275Z,84.38
2018-05-16T06:34:30.294Z,90.00
2018-05-16T06:35:30.312Z,101.25
2018-05-16T06:36:30.335Z,106.88
2018-05-16T06:37:30.393Z,123.75
2018-05-16T06:38:30.429Z,135.00
2018-05-16T06:39:30.385Z,163.13
2018-05-16T06:40:30.403Z,185.63
2018-05-16T06:41:30.414Z,208.13
2018-05-16T06:42:30.438Z,213.75
2018-05-16T06:43:30.508Z,225.00
2018-05-16T06:44:30.471Z,230.63
2018-05-16T06:45:30.489Z,236.25
2018-05-16T06:46:30.504Z,241.88
2018-05-16T06:47:30.524Z,247.50
2018-05-16T06:48:30.546Z,253.13
2018-05-16T06:49:30.610Z,264.38
2018-05-16T06:50:30.590Z,264.38
2018-05-16T06:51:30.633Z,264.38
2018-05-16T06:52:30.631Z,264.38
2018-05-16T06:53:30.633Z,270.00
2018-05-16T06:54:30.654Z,281.25
2018-05-16T06:55:30.734Z,281.25
2018-05-16T06:56:30.704Z,281.25
2018-05-16T06:57:30.714Z,286.88
2018-05-16T06:58:30.735Z,292.50
2018-05-16T06:59:30.748Z,298.13
2018-05-16T07:00:30.765Z,298.13
2018-05-16T07:01:30.841Z,303.75
2018-05-16T07:02:30.810Z,309.38
2018-05-16T07:03:30.827Z,309.38
2018-05-16T07:04:30.844Z,315.00
2018-05-16T07:05:30.863Z,326.25
2018-05-16T07:06:30.933Z,320.63
2018-05-16T07:07:30.901Z,326.25
2018-05-16T07:08:30.922Z,331.88
2018-05-16T07:09:30.936Z,331.88
2018-05-16T07:10:30.962Z,331.88
2018-05-16T07:11:30.983Z,337.50
2018-05-16T07:12:31.048Z,337.50
2018-05-16T07:13:31.076Z,343.13
2018-05-16T07:14:31.043Z,343.13
2018-05-16T07:15:31.058Z,348.75
2018-05-16T07:16:31.076Z,354.38
2018-05-16T07:18:31.172Z,360.00
2018-05-16T07:19:31.174Z,365.63
2018-05-16T07:20:31.157Z,365.63
2018-05-16T07:21:31.181Z,376.88
2018-05-16T07:22:31.197Z,371.25
2018-05-16T07:23:31.217Z,376.88
2018-05-16T07:24:31.293Z,376.88
2018-05-16T07:25:31.331Z,382.50
2018-05-16T07:26:31.283Z,388.13
2018-05-16T07:27:31.304Z,393.75
2018-05-16T07:28:31.321Z,393.75
2018-05-16T07:29:31.340Z,399.38
2018-05-16T07:30:31.419Z,399.38
2018-05-16T07:31:31.385Z,399.38
2018-05-16T07:32:31.488Z,405.00
2018-05-16T07:33:31.424Z,405.00
2018-05-16T07:34:31.446Z,410.63
2018-05-16T07:35:31.466Z,410.63
2018-05-16T07:36:31.489Z,416.25
2018-05-16T07:37:31.545Z,421.88
2018-05-16T07:38:31.528Z,421.88
2018-05-16T07:39:31.553Z,427.50
2018-05-16T07:40:31.581Z,433.13
2018-05-16T07:41:31.655Z,433.13
2018-05-16T07:42:31.669Z,433.13
2018-05-16T07:43:31.637Z,438.75
2018-05-16T07:44:31.658Z,444.38
2018-05-16T07:45:31.677Z,444.38
2018-05-16T07:46:31.720Z,450.00
2018-05-16T07:47:31.720Z,455.63
2018-05-16T07:48:31.798Z,455.63
2018-05-16T07:49:31.766Z,461.25
2018-05-16T07:50:31.788Z,461.25
2018-05-16T07:51:31.806Z,466.88
2018-05-16T07:52:31.828Z,466.88
2018-05-16T07:53:31.858Z,472.50
2018-05-16T07:54:31.870Z,472.50
2018-05-16T07:55:31.900Z,466.88
2018-05-16T07:56:32.010Z,461.25
2018-05-16T07:57:31.943Z,472.50
2018-05-16T07:58:31.965Z,472.50
2018-05-16T07:59:31.984Z,472.50
2018-05-16T08:00:32.055Z,478.13
2018-05-16T08:01:32.033Z,478.13
2018-05-16T08:02:32.075Z,478.13
2018-05-16T08:03:32.069Z,483.75
2018-05-16T08:04:32.094Z,489.38
2018-05-16T08:05:32.117Z,495.00
2018-05-16T08:06:32.190Z,495.00
2018-05-16T08:07:32.162Z,495.00
2018-05-16T08:08:32.183Z,495.00
2018-05-16T08:09:32.224Z,500.63
2018-05-16T08:10:32.225Z,506.25
2018-05-16T08:11:32.248Z,506.25
2018-05-16T08:12:32.331Z,506.25
2018-05-16T08:13:32.293Z,506.25
2018-05-16T08:14:32.316Z,511.88
2018-05-16T08:15:32.342Z,511.88
2018-05-16T08:16:32.361Z,523.13
2018-05-16T08:17:32.388Z,523.13
2018-05-16T08:18:32.524Z,523.13
2018-05-16T08:19:32.425Z,528.75
2018-05-16T08:20:32.452Z,528.75
2018-05-16T08:21:32.470Z,534.38
2018-05-16T08:22:32.506Z,534.38
2018-05-16T08:23:32.528Z,540.00
2018-05-16T08:24:32.544Z,540.00
2018-05-16T08:25:32.566Z,545.63
2018-05-16T08:26:32.590Z,540.00
2018-05-16T08:27:32.625Z,545.63
2018-05-16T08:28:32.644Z,545.63
2018-05-16T08:29:32.668Z,545.63
2018-05-16T08:30:32.684Z,551.25
2018-05-16T08:31:32.699Z,551.25
2018-05-16T08:32:32.720Z,551.25
2018-05-16T08:33:32.792Z,556.88
2018-05-16T08:34:32.774Z,556.88
2018-05-16T08:35:32.791Z,556.88
2018-05-16T08:36:32.815Z,562.50
2018-05-16T08:37:32.838Z,562.50
2018-05-16T08:38:32.857Z,568.13
2018-05-16T08:39:32.914Z,568.13
2018-05-16T08:40:32.907Z,573.75
2018-05-16T08:41:32.925Z,573.75
2018-05-16T08:42:32.956Z,573.75
2018-05-16T08:43:32.975Z,579.38
2018-05-16T08:44:32.996Z,556.88
2018-05-16T08:45:33.083Z,585.00
2018-05-16T08:46:33.041Z,585.00
2018-05-16T08:47:33.068Z,590.63
2018-05-16T08:48:33.086Z,579.38
2018-05-16T08:49:33.113Z,590.63
2018-05-16T08:50:33.138Z,590.63
2018-05-16T08:51:33.150Z,596.25
2018-05-16T08:52:33.178Z,596.25
2018-05-16T08:53:33.246Z,607.50
2018-05-16T08:54:33.225Z,601.88
2018-05-16T08:55:33.247Z,601.88
2018-05-16T08:56:33.268Z,607.50
2018-05-16T08:57:33.291Z,607.50
2018-05-16T08:58:33.319Z,607.50
2018-05-16T08:59:33.393Z,607.50
2018-05-16T09:00:33.369Z,613.13
2018-05-16T09:01:33.386Z,613.13
2018-05-16T09:02:33.410Z,613.13
2018-05-16T09:03:33.430Z,613.13
2018-05-16T09:04:33.455Z,613.13
2018-05-16T09:05:33.527Z,618.75
2018-05-16T09:06:33.497Z,618.75
2018-05-16T09:07:33.520Z,618.75
2018-05-16T09:08:33.548Z,624.38
2018-05-16T09:09:33.570Z,624.38
2018-05-16T09:10:33.597Z,630.00
2018-05-16T09:11:33.669Z,630.00
2018-05-16T09:12:33.640Z,630.00
2018-05-16T09:13:33.675Z,618.75
2018-05-16T09:14:33.692Z,630.00
2018-05-16T09:15:33.742Z,641.25
2018-05-16T09:16:33.736Z,635.63
2018-05-16T09:17:33.807Z,641.25
2018-05-16T09:18:33.790Z,641.25
2018-05-16T09:19:33.809Z,630.00
2018-05-16T09:20:33.828Z,635.63
2018-05-16T09:21:33.856Z,635.63
2018-05-16T09:22:33.878Z,635.63
2018-05-16T09:23:33.902Z,641.25
2018-05-16T09:24:33.925Z,641.25
2018-05-16T09:25:33.954Z,641.25
2018-05-16T09:26:33.976Z,641.25
2018-05-16T09:27:34.080Z,641.25
2018-05-16T09:28:34.026Z,641.25
2018-05-16T09:29:34.102Z,641.25
2018-05-16T09:30:34.078Z,646.88
2018-05-16T09:31:34.102Z,646.88
2018-05-16T09:32:34.126Z,652.50
2018-05-16T09:33:34.172Z,652.50
2018-05-16T09:34:34.171Z,658.13
2018-05-16T09:35:34.198Z,652.50
2018-05-16T09:36:34.223Z,652.50
2018-05-16T09:37:34.243Z,658.13
2018-05-16T09:38:34.271Z,652.50
2018-05-16T09:39:34.327Z,658.13
2018-05-16T09:40:34.328Z,658.13
2018-05-16T09:41:34.343Z,663.75
2018-05-16T09:42:34.363Z,663.75
2018-05-16T09:43:34.388Z,663.75
2018-05-16T09:44:34.414Z,663.75
2018-05-16T09:45:34.499Z,669.38
2018-05-16T09:46:34.468Z,669.38
2018-05-16T09:47:34.493Z,669.38
2018-05-16T09:48:34.515Z,675.00
2018-05-16T09:49:34.541Z,669.38
2018-05-16T09:50:34.566Z,669.38
2018-05-16T09:51:34.597Z,675.00
2018-05-16T09:52:34.611Z,675.00
2018-05-16T09:53:34.690Z,675.00
2018-05-16T09:54:34.666Z,680.63
2018-05-16T09:55:34.690Z,652.50
2018-05-16T09:56:34.715Z,652.50
2018-05-16T09:57:34.738Z,680.63
2018-05-16T09:58:34.766Z,680.63
2018-05-16T09:59:34.843Z,680.63
2018-05-16T10:00:34.815Z,680.63
2018-05-16T10:01:34.840Z,630.00
2018-05-16T10:02:34.862Z,680.63
2018-05-16T10:03:34.891Z,691.88
2018-05-16T10:04:34.919Z,680.63
2018-05-16T10:05:34.991Z,686.25
2018-05-16T10:06:34.968Z,675.00
2018-05-16T10:07:34.990Z,680.63
2018-05-16T10:08:35.014Z,686.25
2018-05-16T10:09:35.073Z,686.25
2018-05-16T10:10:35.065Z,680.63
2018-05-16T10:11:35.093Z,680.63
2018-05-16T10:12:35.114Z,686.25
2018-05-16T10:13:35.143Z,686.25
2018-05-16T10:14:35.164Z,691.88
2018-05-16T10:15:35.186Z,686.25
2018-05-16T10:16:35.269Z,686.25
2018-05-16T10:17:35.244Z,686.25
2018-05-16T10:18:35.264Z,686.25
2018-05-16T10:19:35.329Z,686.25
2018-05-16T10:20:35.321Z,691.88
2018-05-16T10:21:35.347Z,691.88
2018-05-16T10:22:35.419Z,691.88
2018-05-16T10:23:35.391Z,691.88
2018-05-16T10:24:35.424Z,691.88
2018-05-16T10:25:35.443Z,691.88
2018-05-16T10:26:35.477Z,703.13
2018-05-16T10:27:35.501Z,697.50
2018-05-16T10:28:35.520Z,697.50
2018-05-16T10:29:35.549Z,697.50
2018-05-16T10:30:35.573Z,697.50
2018-05-16T10:31:35.601Z,703.13
2018-05-16T10:32:35.626Z,703.13
2018-05-16T10:33:35.653Z,691.88
2018-05-16T10:34:35.701Z,703.13
2018-05-16T10:35:35.707Z,703.13
2018-05-16T10:37:35.758Z,703.13
2018-05-16T10:38:35.781Z,703.13
2018-05-16T10:39:35.903Z,708.75
2018-05-16T10:40:35.883Z,708.75
2018-05-16T10:41:35.942Z,708.75
2018-05-16T10:42:35.897Z,708.75
2018-05-16T10:43:35.912Z,714.38
2018-05-16T10:44:35.944Z,708.75
2018-05-16T10:45:35.960Z,708.75
2018-05-16T10:46:36.087Z,708.75
2018-05-16T10:47:36.013Z,714.38
2018-05-16T10:48:36.045Z,714.38
2018-05-16T10:49:36.068Z,714.38
2018-05-16T10:50:36.091Z,714.38
2018-05-16T10:51:36.125Z,714.38
2018-05-16T10:52:36.217Z,714.38
2018-05-16T10:53:36.169Z,714.38
2018-05-16T10:54:36.198Z,720.00
2018-05-16T10:55:36.226Z,714.38
2018-05-16T10:56:36.260Z,714.38
2018-05-16T10:57:36.277Z,720.00
2018-05-16T10:58:36.373Z,720.00
2018-05-16T10:59:36.333Z,714.38
2018-05-16T11:00:36.354Z,725.63
2018-05-16T11:01:36.381Z,725.63
2018-05-16T11:02:36.415Z,725.63
2018-05-16T11:03:36.439Z,720.00
2018-05-16T11:04:36.546Z,725.63
2018-05-16T11:05:36.489Z,725.63
2018-05-16T11:06:36.510Z,714.38
2018-05-16T11:07:36.537Z,725.63
2018-05-16T11:08:36.562Z,720.00
2018-05-16T11:09:36.590Z,720.00
2018-05-16T11:10:36.754Z,725.63
2018-05-16T11:11:36.648Z,748.13
2018-05-16T11:12:36.672Z,725.63
2018-05-16T11:13:36.703Z,731.25
2018-05-16T11:14:36.721Z,736.88
2018-05-16T11:15:36.756Z,720.00
2018-05-16T11:16:36.783Z,720.00
2018-05-16T11:17:36.801Z,736.88
2018-05-16T11:18:36.830Z,725.63
2018-05-16T11:19:36.859Z,742.50
2018-05-16T11:20:36.884Z,720.00
2018-05-16T11:21:36.912Z,725.63
2018-05-16T11:22:36.936Z,731.25
2018-05-16T11:23:36.964Z,731.25
2018-05-16T11:24:36.991Z,725.63
2018-05-16T11:25:37.015Z,748.13
2018-05-16T11:26:37.044Z,652.50
2018-05-16T11:27:37.100Z,736.88
2018-05-16T11:28:37.144Z,686.25
2018-05-16T11:29:37.128Z,731.25
2018-05-16T11:30:37.153Z,720.00
2018-05-16T11:31:37.405Z,731.25
2018-05-16T11:32:37.206Z,725.63
2018-05-16T11:33:37.234Z,731.25
2018-05-16T11:34:37.307Z,742.50
2018-05-16T11:35:37.289Z,731.25
2018-05-16T11:36:37.320Z,731.25
2018-05-16T11:37:37.339Z,736.88
2018-05-16T11:38:37.363Z,731.25
2018-05-16T11:39:37.449Z,731.25
2018-05-16T11:40:37.422Z,736.88
2018-05-16T11:41:37.443Z,725.63
2018-05-16T11:42:37.473Z,725.63
2018-05-16T11:43:37.496Z,725.63
2018-05-16T11:44:37.529Z,731.25
2018-05-16T11:45:37.554Z,731.25
2018-05-16T11:46:37.586Z,736.88
2018-05-16T11:47:37.610Z,731.25
2018-05-16T11:48:37.635Z,725.63
2018-05-16T11:49:37.664Z,731.25
2018-05-16T11:50:37.687Z,731.25
2018-05-16T11:51:37.712Z,731.25
2018-05-16T11:52:37.745Z,731.25
2018-05-16T11:53:37.770Z,725.63
2018-05-16T11:54:37.797Z,731.25
2018-05-16T11:55:37.836Z,731.25
2018-05-16T11:56:37.849Z,731.25
2018-05-16T11:57:37.882Z,742.50
2018-05-16T11:58:37.912Z,759.38
2018-05-16T11:59:37.939Z,742.50
2018-05-16T12:00:37.964Z,748.13
2018-05-16T12:01:37.986Z,742.50
2018-05-16T12:02:38.024Z,753.75
2018-05-16T12:03:38.043Z,748.13
2018-05-16T12:04:38.075Z,736.88
2018-05-16T12:05:38.104Z,736.88
2018-05-16T12:06:38.126Z,748.13
2018-05-16T12:07:38.162Z,748.13
2018-05-16T12:08:38.189Z,748.13
2018-05-16T12:09:38.210Z,742.50
2018-05-16T12:10:38.354Z,742.50
2018-05-16T12:11:38.270Z,742.50
2018-05-16T12:12:38.300Z,742.50
2018-05-16T12:13:38.327Z,708.75
2018-05-16T12:14:38.391Z,742.50
2018-05-16T12:15:38.377Z,748.13
2018-05-16T12:16:38.490Z,742.50
2018-05-16T12:17:38.442Z,736.88
2018-05-16T12:18:38.465Z,742.50
2018-05-16T12:19:38.485Z,736.88
2018-05-16T12:20:38.521Z,736.88
2018-05-16T12:21:38.568Z,736.88
2018-05-16T12:22:38.618Z,736.88
2018-05-16T12:23:38.601Z,736.88
2018-05-16T12:24:38.628Z,731.25
2018-05-16T12:25:38.654Z,731.25
2018-05-16T12:26:38.684Z,731.25
2018-05-16T12:27:38.708Z,736.88
2018-05-16T12:28:38.817Z,731.25
2018-05-16T12:29:38.763Z,731.25
2018-05-16T12:30:38.788Z,731.25
2018-05-16T12:31:38.814Z,736.88
2018-05-16T12:32:38.845Z,736.88
2018-05-16T12:33:38.877Z,742.50
2018-05-16T12:34:38.957Z,736.88
2018-05-16T12:35:38.929Z,736.88
2018-05-16T12:36:38.975Z,736.88
2018-05-16T12:37:38.973Z,736.88
2018-05-16T12:38:38.999Z,736.88
2018-05-16T12:39:39.030Z,736.88
2018-05-16T12:40:39.070Z,714.38
2018-05-16T12:41:39.088Z,725.63
2018-05-16T12:42:39.110Z,731.25
2018-05-16T12:43:39.138Z,720.00
2018-05-16T12:44:39.168Z,725.63
2018-05-16T12:45:39.195Z,731.25
2018-05-16T12:46:39.289Z,725.63
2018-05-16T12:47:39.245Z,725.63
2018-05-16T12:48:39.271Z,720.00
2018-05-16T12:49:39.299Z,725.63
2018-05-16T12:50:39.325Z,725.63
2018-05-16T12:51:39.356Z,725.63
2018-05-16T12:52:39.387Z,736.88
2018-05-16T12:53:39.405Z,725.63